sensor_id;sensor_type;location;lat;lon;timestamp;temperature;humidity
33881;DHT22;20172;47.530;10.256;2022-12-18T00:01:03;-5.10;99.90
33881;DHT22;20172;47.530;10.256;2022-12-18T00:03:34;-5.20;99.90
33881;DHT22;20172;47.530;10.256;2022-12-18T00:05:59;-5.30;99.90
33881;DHT22;20172;47.530;10.256;2022-12-18T00:08:25;-5.30;99.90
33881;DHT22;20172;47.530;10.256;2022-12-18T00:10:50;-5.20;99.90
33881;DHT22;20172;47.530;10.256;2022-12-18T00:13:16;-5.20;99.90
33881;DHT22;20172;47.530;10.256;2022-12-18T00:15:41;-5.10;99.90
33881;DHT22;20172;47.530;10.256;2022-12-18T00:18:07;-5.10;99.90
33881;DHT22;20172;47.530;10.256;2022-12-18T00:20:36;-5.10;99.90
33881;DHT22;20172;47.530;10.256;2022-12-18T00:23:02;-5.20;99.90
33881;DHT22;20172;47.530;10.256;2022-12-18T00:25:27;-5.20;99.90
33881;DHT22;20172;47.530;10.256;2022-12-18T00:27:53;-5.20;99.90
33881;DHT22;20172;47.530;10.256;2022-12-18T00:30:18;-5.20;99.90
33881;DHT22;20172;47.530;10.256;2022-12-18T00:32:44;-5.30;99.90
33881;DHT22;20172;47.530;10.256;2022-12-18T00:35:09;-5.30;99.90
33881;DHT22;20172;47.530;10.256;2022-12-18T00:37:35;-5.20;99.90
33881;DHT22;20172;47.530;10.256;2022-12-18T00:40:00;-5.20;99.90
33881;DHT22;20172;47.530;10.256;2022-12-18T00:42:26;-5.30;99.90
33881;DHT22;20172;47.530;10.256;2022-12-18T00:45:10;-5.30;99.90
33881;DHT22;20172;47.530;10.256;2022-12-18T00:47:36;-5.30;99.90
33881;DHT22;20172;47.530;10.256;2022-12-18T00:50:01;-5.30;99.90
33881;DHT22;20172;47.530;10.256;2022-12-18T00:52:27;-5.20;99.90
33881;DHT22;20172;47.530;10.256;2022-12-18T00:54:52;-5.30;99.90
33881;DHT22;20172;47.530;10.256;2022-12-18T00:57:18;-5.40;99.90
33881;DHT22;20172;47.530;10.256;2022-12-18T00:59:43;-5.50;99.90
33881;DHT22;20172;47.530;10.256;2022-12-18T01:02:09;-5.70;99.90
33881;DHT22;20172;47.530;10.256;2022-12-18T01:04:34;-5.70;99.90
33881;DHT22;20172;47.530;10.256;2022-12-18T01:07:00;-5.60;99.90
33881;DHT22;20172;47.530;10.256;2022-12-18T01:09:25;-5.60;99.90
33881;DHT22;20172;47.530;10.256;2022-12-18T01:11:51;-5.50;99.90
33881;DHT22;20172;47.530;10.256;2022-12-18T01:14:16;-5.50;99.90
33881;DHT22;20172;47.530;10.256;2022-12-18T01:16:42;-5.50;99.90
33881;DHT22;20172;47.530;10.256;2022-12-18T01:19:07;-5.60;99.90
33881;DHT22;20172;47.530;10.256;2022-12-18T01:21:33;-5.60;99.90
33881;DHT22;20172;47.530;10.256;2022-12-18T01:23:58;-5.60;99.90
33881;DHT22;20172;47.530;10.256;2022-12-18T01:26:24;-5.60;99.90
33881;DHT22;20172;47.530;10.256;2022-12-18T01:28:50;-5.60;99.90
33881;DHT22;20172;47.530;10.256;2022-12-18T01:31:20;-5.70;99.90
33881;DHT22;20172;47.530;10.256;2022-12-18T01:33:47;-5.90;99.90
33881;DHT22;20172;47.530;10.256;2022-12-18T01:36:26;-5.90;99.90
33881;DHT22;20172;47.530;10.256;2022-12-18T01:38:52;-5.80;99.90
33881;DHT22;20172;47.530;10.256;2022-12-18T01:41:18;-5.90;99.90
33881;DHT22;20172;47.530;10.256;2022-12-18T01:46:09;-6.00;99.90
33881;DHT22;20172;47.530;10.256;2022-12-18T01:48:35;-6.20;99.90
33881;DHT22;20172;47.530;10.256;2022-12-18T01:51:00;-6.20;99.90
33881;DHT22;20172;47.530;10.256;2022-12-18T01:53:26;-6.20;99.90
33881;DHT22;20172;47.530;10.256;2022-12-18T01:55:52;-6.40;99.90
33881;DHT22;20172;47.530;10.256;2022-12-18T01:58:19;-6.50;99.90
33881;DHT22;20172;47.530;10.256;2022-12-18T02:00:45;-6.30;99.90
33881;DHT22;20172;47.530;10.256;2022-12-18T02:03:11;-6.30;99.90
33881;DHT22;20172;47.530;10.256;2022-12-18T02:05:40;-6.40;99.90
33881;DHT22;20172;47.530;10.256;2022-12-18T02:08:10;-6.30;99.90
33881;DHT22;20172;47.530;10.256;2022-12-18T02:15:39;-6.20;99.90
33881;DHT22;20172;47.530;10.256;2022-12-18T02:18:19;-6.40;99.90
33881;DHT22;20172;47.530;10.256;2022-12-18T02:28:28;-6.70;99.90
33881;DHT22;20172;47.530;10.256;2022-12-18T02:30:56;-6.60;99.90
33881;DHT22;20172;47.530;10.256;2022-12-18T02:33:25;-6.60;99.90
33881;DHT22;20172;47.530;10.256;2022-12-18T02:35:51;-6.50;99.90
33881;DHT22;20172;47.530;10.256;2022-12-18T02:38:19;-6.70;99.90
33881;DHT22;20172;47.530;10.256;2022-12-18T02:40:44;-6.70;99.90
33881;DHT22;20172;47.530;10.256;2022-12-18T02:43:12;-6.80;99.90
33881;DHT22;20172;47.530;10.256;2022-12-18T02:45:47;-6.90;99.90
33881;DHT22;20172;47.530;10.256;2022-12-18T02:48:13;-6.90;99.90
33881;DHT22;20172;47.530;10.256;2022-12-18T02:50:41;-6.70;99.90
33881;DHT22;20172;47.530;10.256;2022-12-18T02:53:11;-6.60;99.90
33881;DHT22;20172;47.530;10.256;2022-12-18T02:56:26;-6.50;99.90
33881;DHT22;20172;47.530;10.256;2022-12-18T03:00:52;-6.30;99.90
33881;DHT22;20172;47.530;10.256;2022-12-18T03:03:33;-6.30;99.90
33881;DHT22;20172;47.530;10.256;2022-12-18T03:06:10;-6.30;99.90
33881;DHT22;20172;47.530;10.256;2022-12-18T03:08:37;-6.30;99.90
33881;DHT22;20172;47.530;10.256;2022-12-18T03:11:08;-6.40;99.90
33881;DHT22;20172;47.530;10.256;2022-12-18T03:13:55;-6.50;99.90
33881;DHT22;20172;47.530;10.256;2022-12-18T03:16:25;-6.70;99.90
33881;DHT22;20172;47.530;10.256;2022-12-18T03:18:54;-7.00;99.90
33881;DHT22;20172;47.530;10.256;2022-12-18T03:21:24;-7.30;99.90
33881;DHT22;20172;47.530;10.256;2022-12-18T03:23:52;-7.20;99.90
33881;DHT22;20172;47.530;10.256;2022-12-18T03:26:19;-7.40;99.90
33881;DHT22;20172;47.530;10.256;2022-12-18T03:28:53;-7.30;99.90
33881;DHT22;20172;47.530;10.256;2022-12-18T03:31:20;-7.40;99.90
33881;DHT22;20172;47.530;10.256;2022-12-18T03:33:50;-7.60;99.90
33881;DHT22;20172;47.530;10.256;2022-12-18T03:36:17;-7.60;99.90
33881;DHT22;20172;47.530;10.256;2022-12-18T03:38:42;-7.80;99.90
33881;DHT22;20172;47.530;10.256;2022-12-18T03:46:11;-8.10;99.90
33881;DHT22;20172;47.530;10.256;2022-12-18T03:48:51;-8.20;99.90
33881;DHT22;20172;47.530;10.256;2022-12-18T03:51:20;-8.30;99.90
33881;DHT22;20172;47.530;10.256;2022-12-18T03:56:17;-8.40;99.90
33881;DHT22;20172;47.530;10.256;2022-12-18T03:58:43;-8.50;99.90
33881;DHT22;20172;47.530;10.256;2022-12-18T04:01:11;-8.50;99.90
33881;DHT22;20172;47.530;10.256;2022-12-18T04:03:38;-8.40;99.90
33881;DHT22;20172;47.530;10.256;2022-12-18T04:06:05;-8.20;99.90
33881;DHT22;20172;47.530;10.256;2022-12-18T04:08:31;-8.10;99.90
33881;DHT22;20172;47.530;10.256;2022-12-18T04:10:57;-8.10;99.90
33881;DHT22;20172;47.530;10.256;2022-12-18T04:13:29;-8.20;99.90
33881;DHT22;20172;47.530;10.256;2022-12-18T04:15:54;-8.10;99.90
33881;DHT22;20172;47.530;10.256;2022-12-18T04:18:20;-8.00;99.90
33881;DHT22;20172;47.530;10.256;2022-12-18T04:20:45;-8.00;99.90
33881;DHT22;20172;47.530;10.256;2022-12-18T04:23:11;-7.90;99.90
33881;DHT22;20172;47.530;10.256;2022-12-18T04:25:36;-7.80;99.90
33881;DHT22;20172;47.530;10.256;2022-12-18T04:28:02;-7.60;99.90
33881;DHT22;20172;47.530;10.256;2022-12-18T04:30:27;-7.50;99.90
33881;DHT22;20172;47.530;10.256;2022-12-18T04:32:53;-7.60;99.90
33881;DHT22;20172;47.530;10.256;2022-12-18T04:35:18;-7.50;99.90
33881;DHT22;20172;47.530;10.256;2022-12-18T04:37:44;-7.40;99.90
33881;DHT22;20172;47.530;10.256;2022-12-18T04:40:09;-7.30;99.90
33881;DHT22;20172;47.530;10.256;2022-12-18T04:42:35;-7.30;99.90
33881;DHT22;20172;47.530;10.256;2022-12-18T04:45:01;-7.30;99.90
33881;DHT22;20172;47.530;10.256;2022-12-18T04:47:26;-7.20;99.90
33881;DHT22;20172;47.530;10.256;2022-12-18T04:49:51;-7.20;99.90
33881;DHT22;20172;47.530;10.256;2022-12-18T04:52:17;-7.10;99.90
33881;DHT22;20172;47.530;10.256;2022-12-18T04:54:43;-7.10;99.90
33881;DHT22;20172;47.530;10.256;2022-12-18T04:57:09;-7.10;99.90
33881;DHT22;20172;47.530;10.256;2022-12-18T04:59:34;-7.00;99.90
33881;DHT22;20172;47.530;10.256;2022-12-18T05:02:00;-6.90;99.90
33881;DHT22;20172;47.530;10.256;2022-12-18T05:04:25;-6.80;99.90
33881;DHT22;20172;47.530;10.256;2022-12-18T05:06:51;-6.80;99.90
33881;DHT22;20172;47.530;10.256;2022-12-18T05:09:16;-6.90;99.90
33881;DHT22;20172;47.530;10.256;2022-12-18T05:11:42;-6.90;99.90
33881;DHT22;20172;47.530;10.256;2022-12-18T05:14:07;-6.90;99.90
33881;DHT22;20172;47.530;10.256;2022-12-18T05:16:33;-6.90;99.90
33881;DHT22;20172;47.530;10.256;2022-12-18T05:18:59;-6.80;99.90
33881;DHT22;20172;47.530;10.256;2022-12-18T05:21:24;-6.80;99.90
33881;DHT22;20172;47.530;10.256;2022-12-18T05:23:50;-6.80;99.90
33881;DHT22;20172;47.530;10.256;2022-12-18T05:26:16;-6.80;99.90
33881;DHT22;20172;47.530;10.256;2022-12-18T05:28:42;-6.80;99.90
33881;DHT22;20172;47.530;10.256;2022-12-18T05:31:08;-6.80;99.90
33881;DHT22;20172;47.530;10.256;2022-12-18T05:33:34;-6.80;99.90
33881;DHT22;20172;47.530;10.256;2022-12-18T05:36:03;-6.90;99.90
33881;DHT22;20172;47.530;10.256;2022-12-18T05:38:29;-7.00;99.90
33881;DHT22;20172;47.530;10.256;2022-12-18T05:40:55;-7.30;99.90
33881;DHT22;20172;47.530;10.256;2022-12-18T05:43:21;-7.50;99.90
33881;DHT22;20172;47.530;10.256;2022-12-18T05:45:47;-7.70;99.90
33881;DHT22;20172;47.530;10.256;2022-12-18T05:48:12;-7.90;99.90
33881;DHT22;20172;47.530;10.256;2022-12-18T05:50:38;-8.00;99.90
33881;DHT22;20172;47.530;10.256;2022-12-18T05:53:05;-8.10;99.90
33881;DHT22;20172;47.530;10.256;2022-12-18T05:55:34;-8.10;99.90
33881;DHT22;20172;47.530;10.256;2022-12-18T05:58:00;-8.30;99.90
33881;DHT22;20172;47.530;10.256;2022-12-18T06:00:25;-8.30;99.90
33881;DHT22;20172;47.530;10.256;2022-12-18T06:02:51;-8.30;99.90
33881;DHT22;20172;47.530;10.256;2022-12-18T06:05:16;-8.20;99.90
33881;DHT22;20172;47.530;10.256;2022-12-18T06:07:42;-8.00;99.90
33881;DHT22;20172;47.530;10.256;2022-12-18T06:10:07;-7.90;99.90
33881;DHT22;20172;47.530;10.256;2022-12-18T06:12:33;-7.90;99.90
33881;DHT22;20172;47.530;10.256;2022-12-18T06:14:59;-7.90;99.90
33881;DHT22;20172;47.530;10.256;2022-12-18T06:17:33;-8.00;99.90
33881;DHT22;20172;47.530;10.256;2022-12-18T06:19:59;-8.10;99.90
33881;DHT22;20172;47.530;10.256;2022-12-18T06:22:25;-8.00;99.90
33881;DHT22;20172;47.530;10.256;2022-12-18T06:24:50;-7.80;99.90
33881;DHT22;20172;47.530;10.256;2022-12-18T06:27:16;-7.60;99.90
33881;DHT22;20172;47.530;10.256;2022-12-18T06:29:41;-7.50;99.90
33881;DHT22;20172;47.530;10.256;2022-12-18T06:32:07;-7.40;99.90
33881;DHT22;20172;47.530;10.256;2022-12-18T06:34:32;-7.40;99.90
33881;DHT22;20172;47.530;10.256;2022-12-18T06:36:58;-7.40;99.90
33881;DHT22;20172;47.530;10.256;2022-12-18T06:39:24;-7.30;99.90
33881;DHT22;20172;47.530;10.256;2022-12-18T06:41:49;-7.30;99.90
33881;DHT22;20172;47.530;10.256;2022-12-18T06:44:15;-7.20;99.90
33881;DHT22;20172;47.530;10.256;2022-12-18T06:46:41;-7.20;99.90
33881;DHT22;20172;47.530;10.256;2022-12-18T06:49:06;-7.20;99.90
33881;DHT22;20172;47.530;10.256;2022-12-18T06:51:34;-7.30;99.90
33881;DHT22;20172;47.530;10.256;2022-12-18T06:53:59;-7.40;99.90
33881;DHT22;20172;47.530;10.256;2022-12-18T06:56:25;-7.40;99.90
33881;DHT22;20172;47.530;10.256;2022-12-18T06:58:50;-7.60;99.90
33881;DHT22;20172;47.530;10.256;2022-12-18T07:01:16;-7.70;99.90
33881;DHT22;20172;47.530;10.256;2022-12-18T07:03:42;-7.80;99.90
33881;DHT22;20172;47.530;10.256;2022-12-18T07:06:17;-7.90;99.90
33881;DHT22;20172;47.530;10.256;2022-12-18T07:08:43;-7.90;99.90
33881;DHT22;20172;47.530;10.256;2022-12-18T07:11:09;-8.00;99.90
33881;DHT22;20172;47.530;10.256;2022-12-18T07:13:34;-8.20;99.90
33881;DHT22;20172;47.530;10.256;2022-12-18T07:16:04;-8.20;99.90
33881;DHT22;20172;47.530;10.256;2022-12-18T07:18:30;-8.20;99.90
33881;DHT22;20172;47.530;10.256;2022-12-18T07:20:55;-8.10;99.90
33881;DHT22;20172;47.530;10.256;2022-12-18T07:23:21;-8.00;99.90
33881;DHT22;20172;47.530;10.256;2022-12-18T07:25:46;-7.90;99.90
33881;DHT22;20172;47.530;10.256;2022-12-18T07:28:12;-7.80;99.90
33881;DHT22;20172;47.530;10.256;2022-12-18T07:30:37;-7.70;99.90
33881;DHT22;20172;47.530;10.256;2022-12-18T07:33:03;-7.70;99.90
33881;DHT22;20172;47.530;10.256;2022-12-18T07:35:29;-7.70;99.90
33881;DHT22;20172;47.530;10.256;2022-12-18T07:37:54;-7.70;99.90
33881;DHT22;20172;47.530;10.256;2022-12-18T07:40:20;-7.60;99.90
33881;DHT22;20172;47.530;10.256;2022-12-18T07:42:45;-7.60;99.90
33881;DHT22;20172;47.530;10.256;2022-12-18T07:45:10;-7.70;99.90
33881;DHT22;20172;47.530;10.256;2022-12-18T07:47:36;-7.70;99.90
33881;DHT22;20172;47.530;10.256;2022-12-18T07:50:02;-7.70;99.90
33881;DHT22;20172;47.530;10.256;2022-12-18T07:52:28;-7.60;99.90
33881;DHT22;20172;47.530;10.256;2022-12-18T07:54:53;-7.50;99.90
33881;DHT22;20172;47.530;10.256;2022-12-18T07:57:19;-7.40;99.90
33881;DHT22;20172;47.530;10.256;2022-12-18T07:59:44;-7.30;99.90
33881;DHT22;20172;47.530;10.256;2022-12-18T08:02:10;-7.30;99.90
33881;DHT22;20172;47.530;10.256;2022-12-18T08:04:35;-7.10;99.90
33881;DHT22;20172;47.530;10.256;2022-12-18T08:07:01;-7.10;99.90
33881;DHT22;20172;47.530;10.256;2022-12-18T08:09:26;-7.00;99.90
33881;DHT22;20172;47.530;10.256;2022-12-18T08:11:52;-6.90;99.90
33881;DHT22;20172;47.530;10.256;2022-12-18T08:14:17;-6.70;99.90
33881;DHT22;20172;47.530;10.256;2022-12-18T08:16:43;-6.80;99.90
33881;DHT22;20172;47.530;10.256;2022-12-18T08:19:11;-6.80;99.90
33881;DHT22;20172;47.530;10.256;2022-12-18T08:21:36;-6.70;99.90
33881;DHT22;20172;47.530;10.256;2022-12-18T08:24:02;-6.60;99.90
33881;DHT22;20172;47.530;10.256;2022-12-18T08:26:29;-6.70;99.90
33881;DHT22;20172;47.530;10.256;2022-12-18T08:28:55;-7.00;99.90
33881;DHT22;20172;47.530;10.256;2022-12-18T08:31:21;-6.80;99.90
33881;DHT22;20172;47.530;10.256;2022-12-18T08:33:51;-6.60;99.90
33881;DHT22;20172;47.530;10.256;2022-12-18T08:36:16;-6.50;99.90
33881;DHT22;20172;47.530;10.256;2022-12-18T08:38:42;-6.40;99.90
33881;DHT22;20172;47.530;10.256;2022-12-18T08:41:09;-6.30;99.90
33881;DHT22;20172;47.530;10.256;2022-12-18T08:43:35;-6.10;99.90
33881;DHT22;20172;47.530;10.256;2022-12-18T08:46:19;-5.70;99.90
33881;DHT22;20172;47.530;10.256;2022-12-18T08:48:45;-4.90;99.90
33881;DHT22;20172;47.530;10.256;2022-12-18T08:51:11;-3.90;99.90
33881;DHT22;20172;47.530;10.256;2022-12-18T08:53:36;-2.30;99.90
33881;DHT22;20172;47.530;10.256;2022-12-18T08:56:03;-0.40;99.90
33881;DHT22;20172;47.530;10.256;2022-12-18T08:58:28;1.70;99.90
33881;DHT22;20172;47.530;10.256;2022-12-18T09:00:54;3.10;96.40
33881;DHT22;20172;47.530;10.256;2022-12-18T09:03:19;4.60;91.40
33881;DHT22;20172;47.530;10.256;2022-12-18T09:05:47;4.80;83.20
33881;DHT22;20172;47.530;10.256;2022-12-18T09:08:13;6.00;82.50
33881;DHT22;20172;47.530;10.256;2022-12-18T09:10:42;6.30;73.60
33881;DHT22;20172;47.530;10.256;2022-12-18T09:13:09;6.80;73.20
33881;DHT22;20172;47.530;10.256;2022-12-18T09:15:39;7.30;72.30
33881;DHT22;20172;47.530;10.256;2022-12-18T09:18:05;7.90;66.60
33881;DHT22;20172;47.530;10.256;2022-12-18T09:20:30;8.00;64.90
33881;DHT22;20172;47.530;10.256;2022-12-18T09:22:55;8.70;63.70
33881;DHT22;20172;47.530;10.256;2022-12-18T09:25:21;9.00;58.40
33881;DHT22;20172;47.530;10.256;2022-12-18T09:27:47;9.90;58.20
33881;DHT22;20172;47.530;10.256;2022-12-18T09:30:12;9.90;57.90
33881;DHT22;20172;47.530;10.256;2022-12-18T09:32:38;10.80;55.40
33881;DHT22;20172;47.530;10.256;2022-12-18T09:35:03;11.70;53.70
33881;DHT22;20172;47.530;10.256;2022-12-18T09:37:29;12.40;52.40
33881;DHT22;20172;47.530;10.256;2022-12-18T09:39:54;12.70;51.00
33881;DHT22;20172;47.530;10.256;2022-12-18T09:42:21;12.70;48.70
33881;DHT22;20172;47.530;10.256;2022-12-18T09:44:50;12.90;49.50
33881;DHT22;20172;47.530;10.256;2022-12-18T09:47:17;13.70;48.40
33881;DHT22;20172;47.530;10.256;2022-12-18T09:49:44;14.30;47.40
33881;DHT22;20172;47.530;10.256;2022-12-18T09:52:15;14.50;45.60
33881;DHT22;20172;47.530;10.256;2022-12-18T09:54:46;13.90;44.80
33881;DHT22;20172;47.530;10.256;2022-12-18T09:57:14;14.20;45.50
33881;DHT22;20172;47.530;10.256;2022-12-18T09:59:40;15.30;45.70
33881;DHT22;20172;47.530;10.256;2022-12-18T10:02:20;15.60;45.00
33881;DHT22;20172;47.530;10.256;2022-12-18T10:04:49;15.50;45.00
33881;DHT22;20172;47.530;10.256;2022-12-18T10:07:19;16.50;44.30
33881;DHT22;20172;47.530;10.256;2022-12-18T10:12:16;15.40;42.40
33881;DHT22;20172;47.530;10.256;2022-12-18T10:14:44;15.50;41.90
33881;DHT22;20172;47.530;10.256;2022-12-18T10:17:23;16.20;43.10
33881;DHT22;20172;47.530;10.256;2022-12-18T10:23:21;18.10;42.40
33881;DHT22;20172;47.530;10.256;2022-12-18T10:28:00;18.90;40.50
33881;DHT22;20172;47.530;10.256;2022-12-18T10:30:32;19.50;40.20
33881;DHT22;20172;47.530;10.256;2022-12-18T10:33:04;19.90;39.30
33881;DHT22;20172;47.530;10.256;2022-12-18T10:35:30;20.10;38.40
33881;DHT22;20172;47.530;10.256;2022-12-18T10:38:38;20.20;38.70
33881;DHT22;20172;47.530;10.256;2022-12-18T10:43:13;20.50;40.20
33881;DHT22;20172;47.530;10.256;2022-12-18T10:45:40;20.20;38.80
33881;DHT22;20172;47.530;10.256;2022-12-18T10:48:17;20.60;38.10
33881;DHT22;20172;47.530;10.256;2022-12-18T10:50:42;20.90;38.00
33881;DHT22;20172;47.530;10.256;2022-12-18T10:53:13;21.50;37.20
33881;DHT22;20172;47.530;10.256;2022-12-18T10:55:40;22.30;36.40
33881;DHT22;20172;47.530;10.256;2022-12-18T11:00:40;22.40;36.10
33881;DHT22;20172;47.530;10.256;2022-12-18T11:03:17;22.80;35.40
33881;DHT22;20172;47.530;10.256;2022-12-18T11:06:01;22.60;35.40
33881;DHT22;20172;47.530;10.256;2022-12-18T11:08:26;22.60;36.00
33881;DHT22;20172;47.530;10.256;2022-12-18T11:10:52;21.50;35.50
33881;DHT22;20172;47.530;10.256;2022-12-18T11:13:21;21.90;36.50
33881;DHT22;20172;47.530;10.256;2022-12-18T11:15:48;22.80;35.60
33881;DHT22;20172;47.530;10.256;2022-12-18T11:20:42;23.30;34.90
33881;DHT22;20172;47.530;10.256;2022-12-18T11:23:11;22.90;35.10
33881;DHT22;20172;47.530;10.256;2022-12-18T11:25:38;22.90;34.90
33881;DHT22;20172;47.530;10.256;2022-12-18T11:30:48;23.20;35.10
33881;DHT22;20172;47.530;10.256;2022-12-18T11:33:15;23.60;34.70
33881;DHT22;20172;47.530;10.256;2022-12-18T11:35:49;23.60;34.70
33881;DHT22;20172;47.530;10.256;2022-12-18T11:40:45;23.60;34.60
33881;DHT22;20172;47.530;10.256;2022-12-18T11:43:54;23.50;34.60
33881;DHT22;20172;47.530;10.256;2022-12-18T11:46:04;23.50;34.40
33881;DHT22;20172;47.530;10.256;2022-12-18T11:48:36;23.00;34.90
33881;DHT22;20172;47.530;10.256;2022-12-18T11:51:03;22.30;35.40
33881;DHT22;20172;47.530;10.256;2022-12-18T11:53:30;22.80;35.50
33881;DHT22;20172;47.530;10.256;2022-12-18T12:01:28;22.90;35.70
33881;DHT22;20172;47.530;10.256;2022-12-18T12:11:37;23.90;35.40
33881;DHT22;20172;47.530;10.256;2022-12-18T12:16:37;24.60;34.90
33881;DHT22;20172;47.530;10.256;2022-12-18T12:19:21;23.10;34.60
33881;DHT22;20172;47.530;10.256;2022-12-18T12:21:58;22.60;34.90
33881;DHT22;20172;47.530;10.256;2022-12-18T12:27:32;22.30;36.60
33881;DHT22;20172;47.530;10.256;2022-12-18T12:39:48;24.10;34.30
33881;DHT22;20172;47.530;10.256;2022-12-18T12:42:59;24.80;34.10
33881;DHT22;20172;47.530;10.256;2022-12-18T12:45:26;24.00;34.70
33881;DHT22;20172;47.530;10.256;2022-12-18T12:47:53;24.20;34.80
33881;DHT22;20172;47.530;10.256;2022-12-18T12:50:20;23.80;34.60
33881;DHT22;20172;47.530;10.256;2022-12-18T12:52:47;21.70;34.70
33881;DHT22;20172;47.530;10.256;2022-12-18T12:55:17;19.30;36.30
33881;DHT22;20172;47.530;10.256;2022-12-18T13:00:30;15.40;40.00
33881;DHT22;20172;47.530;10.256;2022-12-18T13:03:01;14.00;41.90
33881;DHT22;20172;47.530;10.256;2022-12-18T13:08:10;11.70;45.20
33881;DHT22;20172;47.530;10.256;2022-12-18T13:10:36;11.20;46.30
33881;DHT22;20172;47.530;10.256;2022-12-18T13:20:50;8.90;51.70
33881;DHT22;20172;47.530;10.256;2022-12-18T13:25:44;8.40;53.30
33881;DHT22;20172;47.530;10.256;2022-12-18T13:28:20;7.50;54.40
33881;DHT22;20172;47.530;10.256;2022-12-18T13:30:48;7.10;56.00
33881;DHT22;20172;47.530;10.256;2022-12-18T13:41:00;6.90;56.60
33881;DHT22;20172;47.530;10.256;2022-12-18T13:43:27;7.00;56.80
33881;DHT22;20172;47.530;10.256;2022-12-18T13:48:38;6.70;57.40
33881;DHT22;20172;47.530;10.256;2022-12-18T13:51:05;6.40;58.20
33881;DHT22;20172;47.530;10.256;2022-12-18T13:53:39;6.00;59.20
33881;DHT22;20172;47.530;10.256;2022-12-18T13:56:08;5.90;59.70
33881;DHT22;20172;47.530;10.256;2022-12-18T13:58:33;5.70;60.30
33881;DHT22;20172;47.530;10.256;2022-12-18T14:00:59;5.70;60.50
33881;DHT22;20172;47.530;10.256;2022-12-18T14:03:28;5.40;61.20
33881;DHT22;20172;47.530;10.256;2022-12-18T14:06:03;5.60;61.10
33881;DHT22;20172;47.530;10.256;2022-12-18T14:08:32;5.30;61.80
33881;DHT22;20172;47.530;10.256;2022-12-18T14:10:59;5.20;63.20
33881;DHT22;20172;47.530;10.256;2022-12-18T14:13:58;5.10;63.40
33881;DHT22;20172;47.530;10.256;2022-12-18T14:16:17;5.00;63.70
33881;DHT22;20172;47.530;10.256;2022-12-18T14:18:48;4.80;64.00
33881;DHT22;20172;47.530;10.256;2022-12-18T14:21:29;4.80;64.80
33881;DHT22;20172;47.530;10.256;2022-12-18T14:26:36;4.40;65.90
33881;DHT22;20172;47.530;10.256;2022-12-18T14:29:17;4.20;66.60
33881;DHT22;20172;47.530;10.256;2022-12-18T14:31:43;3.80;67.60
33881;DHT22;20172;47.530;10.256;2022-12-18T14:34:15;3.50;69.00
33881;DHT22;20172;47.530;10.256;2022-12-18T14:36:41;3.20;69.50
33881;DHT22;20172;47.530;10.256;2022-12-18T14:39:16;3.10;71.00
33881;DHT22;20172;47.530;10.256;2022-12-18T14:41:42;2.80;72.20
33881;DHT22;20172;47.530;10.256;2022-12-18T14:44:10;2.70;73.10
33881;DHT22;20172;47.530;10.256;2022-12-18T14:46:38;2.60;73.40
33881;DHT22;20172;47.530;10.256;2022-12-18T14:49:04;2.50;73.90
33881;DHT22;20172;47.530;10.256;2022-12-18T14:51:33;2.40;75.00
33881;DHT22;20172;47.530;10.256;2022-12-18T14:54:03;2.40;75.80
33881;DHT22;20172;47.530;10.256;2022-12-18T14:56:32;2.30;76.10
33881;DHT22;20172;47.530;10.256;2022-12-18T14:59:00;2.20;77.00
33881;DHT22;20172;47.530;10.256;2022-12-18T15:01:27;2.10;78.00
33881;DHT22;20172;47.530;10.256;2022-12-18T15:03:53;2.10;78.50
33881;DHT22;20172;47.530;10.256;2022-12-18T15:08:51;1.80;80.80
33881;DHT22;20172;47.530;10.256;2022-12-18T15:11:32;1.60;80.90
33881;DHT22;20172;47.530;10.256;2022-12-18T15:13:58;1.40;81.20
33881;DHT22;20172;47.530;10.256;2022-12-18T15:16:24;1.30;82.20
33881;DHT22;20172;47.530;10.256;2022-12-18T15:18:49;1.20;82.60
33881;DHT22;20172;47.530;10.256;2022-12-18T15:21:19;1.00;83.10
33881;DHT22;20172;47.530;10.256;2022-12-18T15:23:51;0.80;84.50
33881;DHT22;20172;47.530;10.256;2022-12-18T15:26:18;0.70;85.30
33881;DHT22;20172;47.530;10.256;2022-12-18T15:28:45;0.50;86.00
33881;DHT22;20172;47.530;10.256;2022-12-18T15:33:41;0.40;87.70
33881;DHT22;20172;47.530;10.256;2022-12-18T15:36:11;0.40;88.50
33881;DHT22;20172;47.530;10.256;2022-12-18T15:38:37;0.30;88.70
33881;DHT22;20172;47.530;10.256;2022-12-18T15:41:02;0.20;89.20
33881;DHT22;20172;47.530;10.256;2022-12-18T15:43:31;0.10;89.50
33881;DHT22;20172;47.530;10.256;2022-12-18T15:46:03;0.00;90.10
33881;DHT22;20172;47.530;10.256;2022-12-18T15:48:29;0.00;90.10
33881;DHT22;20172;47.530;10.256;2022-12-18T15:50:57;-0.10;90.30
33881;DHT22;20172;47.530;10.256;2022-12-18T15:53:24;-0.10;90.60
33881;DHT22;20172;47.530;10.256;2022-12-18T15:55:50;-0.20;90.90
33881;DHT22;20172;47.530;10.256;2022-12-18T15:58:34;-0.30;91.00
33881;DHT22;20172;47.530;10.256;2022-12-18T16:01:00;-0.40;91.10
33881;DHT22;20172;47.530;10.256;2022-12-18T16:03:26;-0.60;91.90
33881;DHT22;20172;47.530;10.256;2022-12-18T16:05:51;-0.70;92.60
33881;DHT22;20172;47.530;10.256;2022-12-18T16:08:17;-0.70;93.20
33881;DHT22;20172;47.530;10.256;2022-12-18T16:10:42;-0.70;93.50
33881;DHT22;20172;47.530;10.256;2022-12-18T16:13:17;-0.70;93.40
33881;DHT22;20172;47.530;10.256;2022-12-18T16:15:44;-0.70;93.20
33881;DHT22;20172;47.530;10.256;2022-12-18T16:18:09;-0.90;93.60
33881;DHT22;20172;47.530;10.256;2022-12-18T16:20:35;-0.90;94.60
33881;DHT22;20172;47.530;10.256;2022-12-18T16:23:01;-0.90;94.40
33881;DHT22;20172;47.530;10.256;2022-12-18T16:25:27;-1.10;94.70
33881;DHT22;20172;47.530;10.256;2022-12-18T16:27:53;-1.20;95.20
33881;DHT22;20172;47.530;10.256;2022-12-18T16:30:24;-1.20;95.50
33881;DHT22;20172;47.530;10.256;2022-12-18T16:32:52;-1.20;96.00
33881;DHT22;20172;47.530;10.256;2022-12-18T16:35:18;-1.70;97.80
33881;DHT22;20172;47.530;10.256;2022-12-18T16:37:43;-1.80;98.30
33881;DHT22;20172;47.530;10.256;2022-12-18T16:40:09;-1.90;98.60
33881;DHT22;20172;47.530;10.256;2022-12-18T16:42:36;-1.90;98.90
33881;DHT22;20172;47.530;10.256;2022-12-18T16:45:02;-1.90;99.10
33881;DHT22;20172;47.530;10.256;2022-12-18T16:47:28;-1.90;99.90
33881;DHT22;20172;47.530;10.256;2022-12-18T16:49:53;-1.90;99.90
33881;DHT22;20172;47.530;10.256;2022-12-18T16:52:19;-2.10;99.90
33881;DHT22;20172;47.530;10.256;2022-12-18T16:54:45;-2.30;99.90
33881;DHT22;20172;47.530;10.256;2022-12-18T16:57:14;-2.30;99.90
33881;DHT22;20172;47.530;10.256;2022-12-18T16:59:43;-2.20;99.90
33881;DHT22;20172;47.530;10.256;2022-12-18T17:02:12;-2.30;99.90
33881;DHT22;20172;47.530;10.256;2022-12-18T17:04:39;-2.30;99.90
33881;DHT22;20172;47.530;10.256;2022-12-18T17:07:04;-2.50;99.90
33881;DHT22;20172;47.530;10.256;2022-12-18T17:09:30;-2.50;99.90